F/V Attalaya Berria — FHCB — position and weather

sailwx.info

Track history (hours):
 
Tides and Currents Weather Stations Pressure Air Temp Water Temp Dewpoint Dewpoint Depression Visibility Wind Speed Wind Dir Waves Ship Positions

F/V Attalaya Berria

Last reported at 2018-Jun-23 12:00 UTC. Time now 2018-Jun-23 12:17 UTC.
Position N 43°36' W 002°02'.

Length 26 m.

Type: Fishing. MMSI: 228315000.

Date/timePositionNaut miles runAvg speedWind from/ knotsBaromVisibWave heightAir tempDewpointWater temp
2018-Jun-23 12:00N 43°36' W 002°02'5 9.4
2018-Jun-23 11:30N 43°41' W 002°01'4 7.2
2018-Jun-23 11:00N 43°44' W 002°02'4 7.0
2018-Jun-23 10:30N 43°48' W 002°04'3 6.6
2018-Jun-23 10:00N 43°49' W 002°08'4 7.2
2018-Jun-23 09:30N 43°45' W 002°07'3 5.3
2018-Jun-23 09:00N 43°43' W 002°09'3 6.5
2018-Jun-23 08:30N 43°40' W 002°11'2 4.8
2018-Jun-23 08:00N 43°38' W 002°12'4 7.1
2018-Jun-23 07:30N 43°35' W 002°09'3 5.9
2018-Jun-23 07:00N 43°33' W 002°07'17 0.6
2018-Jun-22 02:06N 43°23' W 001°47'0 0.0
2018-Jun-22 02:00N 43°23' W 001°47'0 0.0
2018-Jun-22 01:27N 43°23' W 001°47'0 0.0
2018-Jun-22 01:00N 43°23' W 001°47'0 0.0
2018-Jun-22 00:30N 43°23' W 001°47'0 0.0
2018-Jun-22 00:00N 43°23' W 001°47'1 1.3
2018-Jun-21 23:30N 43°23' W 001°47'0 0.1
2018-Jun-21 23:00N 43°23' W 001°47'0 0.6
2018-Jun-21 22:30N 43°23' W 001°47'0 0.0
2018-Jun-21 22:00N 43°23' W 001°47'0 0.0
2018-Jun-21 21:30N 43°23' W 001°47'0 0.0
2018-Jun-21 21:00N 43°23' W 001°47'0 0.1
2018-Jun-21 20:30N 43°23' W 001°47'0 0.0
2018-Jun-21 20:00N 43°23' W 001°47'0 0.0
2018-Jun-21 19:30N 43°23' W 001°47'0 0.0
2018-Jun-21 19:00N 43°23' W 001°47'0 0.1
2018-Jun-21 18:30N 43°23' W 001°47'0 0.0
2018-Jun-21 18:00N 43°23' W 001°47'0 0.1
2018-Jun-21 17:30N 43°23' W 001°47'0 0.1
2018-Jun-21 17:00N 43°23' W 001°47'0 0.3
2018-Jun-21 16:30N 43°23' W 001°47'3 5.2
2018-Jun-21 16:00N 43°25' W 001°48'8 7.2
2018-Jun-21 14:52N 43°27' W 001°59'3 8.6
2018-Jun-21 14:29N 43°30' W 002°01'4 8.7
2018-Jun-21 14:00N 43°34' W 002°04'4 8.4
2018-Jun-21 13:31N 43°37' W 002°06'4 7.7
2018-Jun-21 13:00N 43°41' W 002°09'4 8.6
2018-Jun-21 12:30N 43°43' W 002°14'2 4.4
2018-Jun-21 12:00N 43°45' W 002°16'2 3.1
2018-Jun-21 11:30N 43°45' W 002°18'2 4.4
2018-Jun-21 11:00N 43°46' W 002°21'5 9.5
2018-Jun-21 10:31N 43°49' W 002°25'1 2.9
2018-Jun-21 10:00N 43°48' W 002°26'4 8.4
2018-Jun-21 09:31N 43°44' W 002°24'4 7.0
2018-Jun-21 09:01N 43°42' W 002°20'2 3.7
2018-Jun-21 08:30N 43°41' W 002°18'4 8.3
2018-Jun-21 08:01N 43°39' W 002°13'4 7.9
2018-Jun-21 07:30N 43°35' W 002°14'17 6.3
2018-Jun-21 04:50N 43°28' W 001°52'0 0.6
2018-Jun-21 04:30N 43°28' W 001°53'0 1.0
2018-Jun-21 04:00N 43°29' W 001°53'1 1.1
2018-Jun-21 03:30N 43°29' W 001°54'1 1.1
2018-Jun-21 03:01N 43°29' W 001°54'0 0.9
2018-Jun-21 02:30N 43°30' W 001°55'1 1.0
2018-Jun-21 02:00N 43°30' W 001°56'2 3.6
2018-Jun-21 01:30N 43°29' W 001°53'3 6.4
2018-Jun-21 01:00N 43°27' W 001°50'3 6.6
2018-Jun-21 00:30N 43°24' W 001°47'1 2.0
2018-Jun-21 00:01N 43°23' W 001°47'0 0.2
2018-Jun-20 23:29N 43°23' W 001°47'0 0.8
2018-Jun-20 23:01N 43°23' W 001°47'0 0.9
2018-Jun-20 22:30N 43°24' W 001°47'4 8.1
2018-Jun-20 22:00N 43°24' W 001°41'1 2.9
2018-Jun-20 21:30N 43°23' W 001°40'1 2.1
2018-Jun-20 21:00N 43°24' W 001°41'1 1.6
2018-Jun-20 20:30N 43°25' W 001°41'0 0.9
2018-Jun-20 20:00N 43°25' W 001°42'0 0.7
2018-Jun-20 19:31N 43°24' W 001°42'2 3.4
2018-Jun-20 19:00N 43°24' W 001°45'2 3.1
2018-Jun-20 18:30N 43°24' W 001°47'2 3.2
2018-Jun-20 18:00N 43°25' W 001°46'3 6.8
2018-Jun-20 17:30N 43°25' W 001°51'3 5.9
2018-Jun-20 17:01N 43°26' W 001°54'4 8.4
2018-Jun-20 16:30N 43°30' W 001°57'5 9.3
2018-Jun-20 16:00N 43°31' W 002°03'4 8.7
2018-Jun-20 15:30N 43°33' W 002°09'13 3.4
2018-Jun-20 11:36N 43°42' W 002°22'0 3.3
2018-Jun-20 11:28N 43°42' W 002°22'2 4.0
2018-Jun-20 11:00N 43°40' W 002°20'3 6.3
2018-Jun-20 10:30N 43°40' W 002°16'3 6.9
2018-Jun-20 10:00N 43°39' W 002°11'4 8.0
2018-Jun-20 09:30N 43°36' W 002°08'3 5.6
2018-Jun-20 09:00N 43°34' W 002°06'2 4.6
2018-Jun-20 08:31N 43°32' W 002°04'4 7.2
2018-Jun-20 08:00N 43°31' W 001°59'3 6.7
2018-Jun-20 07:30N 43°29' W 001°55'2 3.7
2018-Jun-20 07:00N 43°28' W 001°53'4 7.0
2018-Jun-20 06:30N 43°26' W 001°49'3 6.7
2018-Jun-20 06:00N 43°23' W 001°47'0 0.0
2018-Jun-20 05:27N 43°23' W 001°47'0 0.0
2018-Jun-20 04:57N 43°23' W 001°47'0 0.9
2018-Jun-20 04:30N 43°23' W 001°47'0 0.1
2018-Jun-20 04:00N 43°23' W 001°47'0 0.4
2018-Jun-20 03:29N 43°23' W 001°47'0 0.1
2018-Jun-20 02:59N 43°23' W 001°47'0 0.3
2018-Jun-20 02:31N 43°23' W 001°47'0 0.0
2018-Jun-20 02:00N 43°23' W 001°47'0 0.0
2018-Jun-20 01:30N 43°23' W 001°47'0 0.0
2018-Jun-20 01:01N 43°23' W 001°47'0 0.0
2018-Jun-20 00:30N 43°23' W 001°47'0 0.0
2018-Jun-20 00:00N 43°23' W 001°47'0 0.0
2018-Jun-19 23:30N 43°23' W 001°47'0 0.0
2018-Jun-19 23:01N 43°23' W 001°47'0 0.0
2018-Jun-19 22:30N 43°23' W 001°47'0 0.0
2018-Jun-19 22:01N 43°23' W 001°47'0 0.1
2018-Jun-19 21:31N 43°23' W 001°47'0 0.1
2018-Jun-19 21:00N 43°23' W 001°47'0 0.0
2018-Jun-19 20:30N 43°23' W 001°47'0 0.0
2018-Jun-19 19:58N 43°23' W 001°47'0 0.1
2018-Jun-19 19:30N 43°23' W 001°47'  
2018-Jun-15 06:43N 43°22' W 001°47'0 0.0
2018-Jun-15 06:30N 43°22' W 001°47'0 0.1
2018-Jun-15 06:01N 43°22' W 001°47'0 0.0
2018-Jun-15 05:31N 43°22' W 001°47'0 0.0
2018-Jun-15 05:00N 43°22' W 001°47'0 0.0
2018-Jun-15 04:30N 43°22' W 001°47'0 0.0
2018-Jun-15 04:01N 43°22' W 001°47'2 4.2
2018-Jun-15 03:30N 43°24' W 001°46'4 8.5
2018-Jun-15 03:00N 43°23' W 001°40'0 0.4
2018-Jun-15 02:10N 43°23' W 001°40'1 4.3
2018-Jun-15 02:01N 43°24' W 001°40'4 7.4
2018-Jun-15 01:30N 43°27' W 001°40'0 0.5
2018-Jun-15 01:00N 43°27' W 001°40'2 3.3
2018-Jun-15 00:30N 43°27' W 001°42'0 0.3
2018-Jun-15 00:00N 43°27' W 001°43'2 4.1
2018-Jun-14 23:30N 43°28' W 001°40'0 0.2
2018-Jun-14 23:00N 43°28' W 001°40'1 1.3
2018-Jun-14 22:31N 43°27' W 001°40'3 5.4
2018-Jun-14 22:01N 43°29' W 001°38'1 2.5
2018-Jun-14 21:30N 43°30' W 001°36'1 1.9
2018-Jun-14 21:00N 43°29' W 001°37'4 7.9
2018-Jun-14 20:30N 43°27' W 001°42'0 0.6
2018-Jun-14 20:00N 43°27' W 001°42'2 3.7
2018-Jun-14 19:30N 43°26' W 001°44'  
Track history (hours):
 
Tides and Currents Weather Stations Pressure Air Temp Water Temp Dewpoint Dewpoint Depression Visibility Wind Speed Wind Dir Waves Ship Positions

F/V Attalaya Berria

Last reported at 2018-Jun-23 12:00 UTC. Time now 2018-Jun-23 12:17 UTC.
Position N 43°36' W 002°02'.

Length 26 m.

Type: Fishing. MMSI: 228315000.

Date/timePositionNaut miles runAvg speedWind from/ knotsBaromVisibWave heightAir tempDewpointWater temp
2018-Jun-23 12:00N 43°36' W 002°02'5 9.4
2018-Jun-23 11:30N 43°41' W 002°01'4 7.2
2018-Jun-23 11:00N 43°44' W 002°02'4 7.0
2018-Jun-23 10:30N 43°48' W 002°04'3 6.6
2018-Jun-23 10:00N 43°49' W 002°08'4 7.2
2018-Jun-23 09:30N 43°45' W 002°07'3 5.3
2018-Jun-23 09:00N 43°43' W 002°09'3 6.5
2018-Jun-23 08:30N 43°40' W 002°11'2 4.8
2018-Jun-23 08:00N 43°38' W 002°12'4 7.1
2018-Jun-23 07:30N 43°35' W 002°09'3 5.9
2018-Jun-23 07:00N 43°33' W 002°07'17 0.6
2018-Jun-22 02:06N 43°23' W 001°47'0 0.0
2018-Jun-22 02:00N 43°23' W 001°47'0 0.0
2018-Jun-22 01:27N 43°23' W 001°47'0 0.0
2018-Jun-22 01:00N 43°23' W 001°47'0 0.0
2018-Jun-22 00:30N 43°23' W 001°47'0 0.0
2018-Jun-22 00:00N 43°23' W 001°47'1 1.3
2018-Jun-21 23:30N 43°23' W 001°47'0 0.1
2018-Jun-21 23:00N 43°23' W 001°47'0 0.6
2018-Jun-21 22:30N 43°23' W 001°47'0 0.0
2018-Jun-21 22:00N 43°23' W 001°47'0 0.0
2018-Jun-21 21:30N 43°23' W 001°47'0 0.0
2018-Jun-21 21:00N 43°23' W 001°47'0 0.1
2018-Jun-21 20:30N 43°23' W 001°47'0 0.0
2018-Jun-21 20:00N 43°23' W 001°47'0 0.0
2018-Jun-21 19:30N 43°23' W 001°47'0 0.0
2018-Jun-21 19:00N 43°23' W 001°47'0 0.1
2018-Jun-21 18:30N 43°23' W 001°47'0 0.0
2018-Jun-21 18:00N 43°23' W 001°47'0 0.1
2018-Jun-21 17:30N 43°23' W 001°47'0 0.1
2018-Jun-21 17:00N 43°23' W 001°47'0 0.3
2018-Jun-21 16:30N 43°23' W 001°47'3 5.2
2018-Jun-21 16:00N 43°25' W 001°48'8 7.2
2018-Jun-21 14:52N 43°27' W 001°59'3 8.6
2018-Jun-21 14:29N 43°30' W 002°01'4 8.7
2018-Jun-21 14:00N 43°34' W 002°04'4 8.4
2018-Jun-21 13:31N 43°37' W 002°06'4 7.7
2018-Jun-21 13:00N 43°41' W 002°09'4 8.6
2018-Jun-21 12:30N 43°43' W 002°14'2 4.4
2018-Jun-21 12:00N 43°45' W 002°16'2 3.1
2018-Jun-21 11:30N 43°45' W 002°18'2 4.4
2018-Jun-21 11:00N 43°46' W 002°21'5 9.5
2018-Jun-21 10:31N 43°49' W 002°25'1 2.9
2018-Jun-21 10:00N 43°48' W 002°26'4 8.4
2018-Jun-21 09:31N 43°44' W 002°24'4 7.0
2018-Jun-21 09:01N 43°42' W 002°20'2 3.7
2018-Jun-21 08:30N 43°41' W 002°18'4 8.3
2018-Jun-21 08:01N 43°39' W 002°13'4 7.9
2018-Jun-21 07:30N 43°35' W 002°14'17 6.3
2018-Jun-21 04:50N 43°28' W 001°52'0 0.6
2018-Jun-21 04:30N 43°28' W 001°53'0 1.0
2018-Jun-21 04:00N 43°29' W 001°53'1 1.1
2018-Jun-21 03:30N 43°29' W 001°54'1 1.1
2018-Jun-21 03:01N 43°29' W 001°54'0 0.9
2018-Jun-21 02:30N 43°30' W 001°55'1 1.0
2018-Jun-21 02:00N 43°30' W 001°56'2 3.6
2018-Jun-21 01:30N 43°29' W 001°53'3 6.4
2018-Jun-21 01:00N 43°27' W 001°50'3 6.6
2018-Jun-21 00:30N 43°24' W 001°47'1 2.0
2018-Jun-21 00:01N 43°23' W 001°47'0 0.2
2018-Jun-20 23:29N 43°23' W 001°47'0 0.8
2018-Jun-20 23:01N 43°23' W 001°47'0 0.9
2018-Jun-20 22:30N 43°24' W 001°47'4 8.1
2018-Jun-20 22:00N 43°24' W 001°41'1 2.9
2018-Jun-20 21:30N 43°23' W 001°40'1 2.1
2018-Jun-20 21:00N 43°24' W 001°41'1 1.6
2018-Jun-20 20:30N 43°25' W 001°41'0 0.9
2018-Jun-20 20:00N 43°25' W 001°42'0 0.7
2018-Jun-20 19:31N 43°24' W 001°42'2 3.4
2018-Jun-20 19:00N 43°24' W 001°45'2 3.1
2018-Jun-20 18:30N 43°24' W 001°47'2 3.2
2018-Jun-20 18:00N 43°25' W 001°46'3 6.8
2018-Jun-20 17:30N 43°25' W 001°51'3 5.9
2018-Jun-20 17:01N 43°26' W 001°54'4 8.4
2018-Jun-20 16:30N 43°30' W 001°57'5 9.3
2018-Jun-20 16:00N 43°31' W 002°03'4 8.7
2018-Jun-20 15:30N 43°33' W 002°09'13 3.4
2018-Jun-20 11:36N 43°42' W 002°22'0 3.3
2018-Jun-20 11:28N 43°42' W 002°22'2 4.0
2018-Jun-20 11:00N 43°40' W 002°20'3 6.3
2018-Jun-20 10:30N 43°40' W 002°16'3 6.9
2018-Jun-20 10:00N 43°39' W 002°11'4 8.0
2018-Jun-20 09:30N 43°36' W 002°08'3 5.6
2018-Jun-20 09:00N 43°34' W 002°06'2 4.6
2018-Jun-20 08:31N 43°32' W 002°04'4 7.2
2018-Jun-20 08:00N 43°31' W 001°59'3 6.7
2018-Jun-20 07:30N 43°29' W 001°55'2 3.7
2018-Jun-20 07:00N 43°28' W 001°53'4 7.0
2018-Jun-20 06:30N 43°26' W 001°49'3 6.7
2018-Jun-20 06:00N 43°23' W 001°47'0 0.0
2018-Jun-20 05:27N 43°23' W 001°47'0 0.0
2018-Jun-20 04:57N 43°23' W 001°47'0 0.9
2018-Jun-20 04:30N 43°23' W 001°47'0 0.1
2018-Jun-20 04:00N 43°23' W 001°47'0 0.4
2018-Jun-20 03:29N 43°23' W 001°47'0 0.1
2018-Jun-20 02:59N 43°23' W 001°47'0 0.3
2018-Jun-20 02:31N 43°23' W 001°47'0 0.0
2018-Jun-20 02:00N 43°23' W 001°47'0 0.0
2018-Jun-20 01:30N 43°23' W 001°47'0 0.0
2018-Jun-20 01:01N 43°23' W 001°47'0 0.0
2018-Jun-20 00:30N 43°23' W 001°47'0 0.0
2018-Jun-20 00:00N 43°23' W 001°47'0 0.0
2018-Jun-19 23:30N 43°23' W 001°47'0 0.0
2018-Jun-19 23:01N 43°23' W 001°47'0 0.0
2018-Jun-19 22:30N 43°23' W 001°47'0 0.0
2018-Jun-19 22:01N 43°23' W 001°47'0 0.1
2018-Jun-19 21:31N 43°23' W 001°47'0 0.1
2018-Jun-19 21:00N 43°23' W 001°47'0 0.0
2018-Jun-19 20:30N 43°23' W 001°47'0 0.0
2018-Jun-19 19:58N 43°23' W 001°47'0 0.1
2018-Jun-19 19:30N 43°23' W 001°47'  
2018-Jun-15 06:43N 43°22' W 001°47'0 0.0
2018-Jun-15 06:30N 43°22' W 001°47'0 0.1
2018-Jun-15 06:01N 43°22' W 001°47'0 0.0
2018-Jun-15 05:31N 43°22' W 001°47'0 0.0
2018-Jun-15 05:00N 43°22' W 001°47'0 0.0
2018-Jun-15 04:30N 43°22' W 001°47'0 0.0
2018-Jun-15 04:01N 43°22' W 001°47'2 4.2
2018-Jun-15 03:30N 43°24' W 001°46'4 8.5
2018-Jun-15 03:00N 43°23' W 001°40'0 0.4
2018-Jun-15 02:10N 43°23' W 001°40'1 4.3
2018-Jun-15 02:01N 43°24' W 001°40'4 7.4
2018-Jun-15 01:30N 43°27' W 001°40'0 0.5
2018-Jun-15 01:00N 43°27' W 001°40'2 3.3
2018-Jun-15 00:30N 43°27' W 001°42'0 0.3
2018-Jun-15 00:00N 43°27' W 001°43'2 4.1
2018-Jun-14 23:30N 43°28' W 001°40'0 0.2
2018-Jun-14 23:00N 43°28' W 001°40'1 1.3
2018-Jun-14 22:31N 43°27' W 001°40'3 5.4
2018-Jun-14 22:01N 43°29' W 001°38'1 2.5
2018-Jun-14 21:30N 43°30' W 001°36'1 1.9
2018-Jun-14 21:00N 43°29' W 001°37'4 7.9
2018-Jun-14 20:30N 43°27' W 001°42'0 0.6
2018-Jun-14 20:00N 43°27' W 001°42'2 3.7
2018-Jun-14 19:30N 43°26' W 001°44'  

Dump ship's entire track history